Time;durP1;ratioP1;P1;durP2;ratioP2;P2;SDS_P1;SDS_P2;PMS_P1;PMS_P2;Temp;Humidity;BMP_temperature;BMP_pressure;BME280_temperature;BME280_humidity;BME280_pressure;Samples;Min_cycle;Max_cycle;Signal;HPM_P1;HPM_P2
2023/01/25 00:02:27;;;;;;;12.80;10.10;;;;;;;-128.00;-1.00;-1.00;105845;1251;1056432;-85
2023/01/25 00:04:54;;;;;;;14.00;11.50;;;;;;;-128.00;-1.00;-1.00;105811;1251;1004546;-88
2023/01/25 00:07:20;;;;;;;14.10;11.10;;;;;;;-128.00;-1.00;-1.00;105568;1251;1005394;-88
2023/01/25 00:09:47;;;;;;;15.90;12.90;;;;;;;-128.00;-1.00;-1.00;105869;1251;1004731;-87
2023/01/25 00:12:14;;;;;;;16.00;12.20;;;;;;;-128.00;-1.00;-1.00;105679;1251;1005588;-88
2023/01/25 00:14:40;;;;;;;14.80;10.60;;;;;;;-128.00;-1.00;-1.00;105791;1252;1004841;-88
2023/01/25 00:17:07;;;;;;;15.90;12.00;;;;;;;-128.00;-1.00;-1.00;105587;1251;1003516;-88
2023/01/25 00:19:34;;;;;;;14.10;11.80;;;;;;;-128.00;-1.00;-1.00;105753;1251;1004018;-88
2023/01/25 00:22:00;;;;;;;18.90;14.10;;;;;;;-128.00;-1.00;-1.00;105825;1251;1005320;-87
2023/01/25 00:24:27;;;;;;;18.10;13.30;;;;;;;-128.00;-1.00;-1.00;105867;1251;1005638;-88
2023/01/25 00:26:54;;;;;;;19.10;13.40;;;;;;;-128.00;-1.00;-1.00;105813;1255;1006124;-87
2023/01/25 00:29:20;;;;;;;17.60;13.30;;;;;;;-128.00;-1.00;-1.00;105838;1251;1005422;-89
2023/01/25 00:32:01;;;;;;;14.50;11.80;;;;;;;-128.00;-1.00;-1.00;105815;1251;1004804;-85
2023/01/25 00:34:28;;;;;;;17.60;14.30;;;;;;;-128.00;-1.00;-1.00;105746;1251;1046450;-89
2023/01/25 00:36:57;;;;;;;14.30;11.70;;;;;;;-128.00;-1.00;-1.00;105843;1251;1005251;-88
2023/01/25 00:39:25;;;;;;;15.20;11.50;;;;;;;-128.00;-1.00;-1.00;105839;1251;1055472;-89
2023/01/25 00:41:52;;;;;;;14.20;10.60;;;;;;;-128.00;-1.00;-1.00;105783;1251;1059817;-87
2023/01/25 00:44:19;;;;;;;13.40;9.60;;;;;;;-128.00;-1.00;-1.00;105814;1251;1005188;-89
2023/01/25 00:46:46;;;;;;;11.60;8.90;;;;;;;-128.00;-1.00;-1.00;105752;1256;1005383;-89
2023/01/25 00:49:24;;;;;;;9.60;6.90;;;;;;;-128.00;-1.00;-1.00;105869;1251;1004122;-86
2023/01/25 00:51:53;;;;;;;10.00;7.60;;;;;;;-128.00;-1.00;-1.00;105845;1251;1056451;-88
2023/01/25 00:54:20;;;;;;;10.50;7.70;;;;;;;-128.00;-1.00;-1.00;105812;1251;1060300;-87
2023/01/25 00:56:48;;;;;;;9.90;7.20;;;;;;;-128.00;-1.00;-1.00;105676;1251;1005624;-87
2023/01/25 00:59:14;;;;;;;9.20;7.30;;;;;;;-128.00;-1.00;-1.00;105842;1251;1005186;-87
2023/01/25 01:01:41;;;;;;;10.90;7.60;;;;;;;-128.00;-1.00;-1.00;105805;1251;1003917;-89
2023/01/25 01:04:08;;;;;;;9.50;7.60;;;;;;;-128.00;-1.00;-1.00;105855;1251;1004486;-88
2023/01/25 01:06:36;;;;;;;12.20;9.70;;;;;;;-128.00;-1.00;-1.00;105811;1251;1005649;-89
2023/01/25 01:09:06;;;;;;;14.30;9.50;;;;;;;-128.00;-1.00;-1.00;105058;1251;1046079;-87
2023/01/25 01:11:32;;;;;;;11.90;9.00;;;;;;;-128.00;-1.00;-1.00;105842;1251;1047784;-89
2023/01/25 01:13:59;;;;;;;12.70;10.20;;;;;;;-128.00;-1.00;-1.00;105838;1251;1005083;-88
2023/01/25 01:16:26;;;;;;;13.80;10.30;;;;;;;-128.00;-1.00;-1.00;105860;1251;1004417;-88
2023/01/25 01:18:53;;;;;;;14.80;9.10;;;;;;;-128.00;-1.00;-1.00;105760;1251;1005187;-88
2023/01/25 01:21:19;;;;;;;12.50;10.10;;;;;;;-128.00;-1.00;-1.00;105563;1252;1005792;-87
2023/01/25 01:23:46;;;;;;;14.10;9.90;;;;;;;-128.00;-1.00;-1.00;105771;1251;1004538;-88
2023/01/25 01:26:15;;;;;;;11.80;9.40;;;;;;;-128.00;-1.00;-1.00;105857;1252;1004306;-88
2023/01/25 01:28:42;;;;;;;10.70;9.00;;;;;;;-128.00;-1.00;-1.00;105863;1251;1056094;-88
2023/01/25 01:31:16;;;;;;;12.40;10.70;;;;;;;-128.00;-1.00;-1.00;105842;1252;1004084;-87
2023/01/25 01:33:43;;;;;;;13.40;10.70;;;;;;;-128.00;-1.00;-1.00;105898;1251;1046389;-89
2023/01/25 01:36:13;;;;;;;13.80;11.10;;;;;;;-128.00;-1.00;-1.00;105836;1252;1005576;-87
2023/01/25 01:38:40;;;;;;;11.80;9.60;;;;;;;-128.00;-1.00;-1.00;105828;1252;1061838;-87
2023/01/25 01:41:08;;;;;;;10.90;9.20;;;;;;;-128.00;-1.00;-1.00;105829;1251;1004105;-87
2023/01/25 01:43:34;;;;;;;11.50;10.40;;;;;;;-128.00;-1.00;-1.00;105035;1251;1004418;-88
2023/01/25 01:46:38;;;;;;;11.70;9.60;;;;;;;-128.00;-1.00;-1.00;105823;1251;1006194;-87
2023/01/25 01:49:25;;;;;;;11.80;9.80;;;;;;;-128.00;-1.00;-1.00;105084;1253;1048069;-88
2023/01/25 01:52:15;;;;;;;11.70;9.90;;;;;;;-128.00;-1.00;-1.00;105878;1251;1062628;-88
2023/01/25 01:54:48;;;;;;;11.40;10.20;;;;;;;-128.00;-1.00;-1.00;105829;1251;1057842;-89
2023/01/25 01:57:25;;;;;;;12.80;9.90;;;;;;;-128.00;-1.00;-1.00;105717;1251;1059591;-88
2023/01/25 02:00:07;;;;;;;10.60;8.50;;;;;;;-128.00;-1.00;-1.00;105812;1251;1047467;-88
2023/01/25 02:02:33;;;;;;;12.80;9.30;;;;;;;-128.00;-1.00;-1.00;105868;1251;1046172;-87
2023/01/25 02:05:04;;;;;;;10.90;9.20;;;;;;;-128.00;-1.00;-1.00;105605;1251;1004003;-89
2023/01/25 02:07:33;;;;;;;12.50;10.10;;;;;;;-128.00;-1.00;-1.00;105825;1251;1056252;-88
2023/01/25 02:10:01;;;;;;;12.10;9.70;;;;;;;-128.00;-1.00;-1.00;105805;1251;1059080;-87
2023/01/25 02:12:28;;;;;;;12.80;9.90;;;;;;;-128.00;-1.00;-1.00;105816;1251;1004805;-87
2023/01/25 02:14:55;;;;;;;11.60;9.70;;;;;;;-128.00;-1.00;-1.00;105621;1251;1004074;-87
2023/01/25 02:17:27;;;;;;;11.70;9.90;;;;;;;-128.00;-1.00;-1.00;105876;1251;1005245;-87
2023/01/25 02:20:20;;;;;;;11.80;9.90;;;;;;;-128.00;-1.00;-1.00;105104;1251;1057243;-89
2023/01/25 02:23:02;;;;;;;11.60;9.90;;;;;;;-128.00;-1.00;-1.00;105821;1251;1061060;-88
2023/01/25 02:25:29;;;;;;;11.90;10.30;;;;;;;-128.00;-1.00;-1.00;105828;1253;1044911;-88
2023/01/25 02:28:25;;;;;;;13.00;11.60;;;;;;;-128.00;-1.00;-1.00;105839;1251;1006090;-89
2023/01/25 02:30:52;;;;;;;12.90;10.20;;;;;;;-128.00;-1.00;-1.00;105122;1261;1060753;-88
2023/01/25 02:33:22;;;;;;;13.20;11.10;;;;;;;-128.00;-1.00;-1.00;105151;1260;1005954;-87
2023/01/25 02:35:55;;;;;;;11.60;10.40;;;;;;;-128.00;-1.00;-1.00;105182;1260;1059064;-87
2023/01/25 02:38:22;;;;;;;12.20;10.40;;;;;;;-128.00;-1.00;-1.00;105136;1260;1044728;-89
2023/01/25 02:40:54;;;;;;;12.10;9.50;;;;;;;-128.00;-1.00;-1.00;105009;1260;1004304;-86
2023/01/25 02:43:23;;;;;;;10.90;9.20;;;;;;;-128.00;-1.00;-1.00;105196;1259;1062321;-88
2023/01/25 02:45:57;;;;;;;11.30;9.30;;;;;;;-128.00;-1.00;-1.00;105136;1260;1056750;-87
2023/01/25 02:48:23;;;;;;;13.20;10.80;;;;;;;-128.00;-1.00;-1.00;105205;1261;1058680;-87
2023/01/25 02:50:50;;;;;;;10.60;8.90;;;;;;;-128.00;-1.00;-1.00;105146;1260;1006022;-88
2023/01/25 02:53:16;;;;;;;10.40;9.10;;;;;;;-128.00;-1.00;-1.00;105218;1260;1004737;-88
2023/01/25 02:55:44;;;;;;;11.10;8.80;;;;;;;-128.00;-1.00;-1.00;105252;1260;1005580;-88
2023/01/25 02:58:11;;;;;;;10.60;8.90;;;;;;;-128.00;-1.00;-1.00;105250;1261;1004050;-87
2023/01/25 03:00:38;;;;;;;11.10;9.20;;;;;;;-128.00;-1.00;-1.00;105327;1264;1004660;-85
2023/01/25 03:03:05;;;;;;;10.00;9.00;;;;;;;-128.00;-1.00;-1.00;105324;1262;1004251;-87
2023/01/25 03:05:31;;;;;;;12.00;8.50;;;;;;;-128.00;-1.00;-1.00;105016;1266;1005176;-86
2023/01/25 03:07:58;;;;;;;11.70;8.60;;;;;;;-128.00;-1.00;-1.00;105009;1262;1004856;-87
2023/01/25 03:10:24;;;;;;;9.80;8.80;;;;;;;-128.00;-1.00;-1.00;104977;1262;1006036;-87
2023/01/25 03:12:51;;;;;;;11.00;8.60;;;;;;;-128.00;-1.00;-1.00;105121;1262;1005047;-84
2023/01/25 03:15:17;;;;;;;9.90;8.60;;;;;;;-128.00;-1.00;-1.00;105132;1262;1004778;-88
2023/01/25 03:17:44;;;;;;;11.00;9.30;;;;;;;-128.00;-1.00;-1.00;104983;1262;1005908;-88
2023/01/25 03:20:11;;;;;;;10.20;8.70;;;;;;;-128.00;-1.00;-1.00;104947;1262;1004799;-87
2023/01/25 03:22:38;;;;;;;12.20;10.10;;;;;;;-128.00;-1.00;-1.00;105067;1262;1003773;-87
2023/01/25 03:25:05;;;;;;;10.80;9.00;;;;;;;-128.00;-1.00;-1.00;105068;1262;1004126;-87
2023/01/25 03:27:32;;;;;;;12.80;10.30;;;;;;;-128.00;-1.00;-1.00;104881;1262;1004677;-88
2023/01/25 03:29:58;;;;;;;10.60;9.10;;;;;;;-128.00;-1.00;-1.00;105058;1262;1004895;-87
2023/01/25 03:32:25;;;;;;;10.00;9.00;;;;;;;-128.00;-1.00;-1.00;105065;1262;1005422;-87
2023/01/25 03:34:52;;;;;;;12.50;10.60;;;;;;;-128.00;-1.00;-1.00;105085;1262;1004602;-87
2023/01/25 03:37:18;;;;;;;14.10;10.90;;;;;;;-128.00;-1.00;-1.00;104988;1262;1005333;-87
2023/01/25 03:39:45;;;;;;;13.20;10.50;;;;;;;-128.00;-1.00;-1.00;105051;1262;1005134;-87
2023/01/25 03:42:12;;;;;;;11.50;9.00;;;;;;;-128.00;-1.00;-1.00;105112;1262;1004909;-89
2023/01/25 03:44:38;;;;;;;11.70;10.20;;;;;;;-128.00;-1.00;-1.00;105064;1262;1003446;-88
2023/01/25 03:47:05;;;;;;;12.40;9.60;;;;;;;-128.00;-1.00;-1.00;104954;1262;1003957;-86
2023/01/25 03:49:32;;;;;;;12.60;10.60;;;;;;;-128.00;-1.00;-1.00;105051;1262;1005280;-88
2023/01/25 03:51:58;;;;;;;12.30;10.40;;;;;;;-128.00;-1.00;-1.00;105080;1262;1006018;-87
2023/01/25 03:54:25;;;;;;;14.40;11.40;;;;;;;-128.00;-1.00;-1.00;105080;1262;1004169;-85
2023/01/25 03:56:52;;;;;;;12.80;11.30;;;;;;;-128.00;-1.00;-1.00;105074;1262;1004287;-88
2023/01/25 03:59:18;;;;;;;12.50;11.10;;;;;;;-128.00;-1.00;-1.00;105086;1262;1005871;-87
2023/01/25 04:01:45;;;;;;;14.70;12.00;;;;;;;-128.00;-1.00;-1.00;105091;1262;1004887;-87
2023/01/25 04:04:11;;;;;;;16.80;11.90;;;;;;;-128.00;-1.00;-1.00;105064;1262;1005863;-89
2023/01/25 04:06:38;;;;;;;12.80;11.40;;;;;;;-128.00;-1.00;-1.00;105085;1262;1004085;-87
2023/01/25 04:09:05;;;;;;;14.00;11.10;;;;;;;-128.00;-1.00;-1.00;104312;1262;1005356;-88
2023/01/25 04:11:32;;;;;;;12.40;10.70;;;;;;;-128.00;-1.00;-1.00;105094;1262;1003849;-87
2023/01/25 04:13:59;;;;;;;14.70;11.00;;;;;;;-128.00;-1.00;-1.00;105063;1262;1005543;-87
2023/01/25 04:16:26;;;;;;;12.70;10.40;;;;;;;-128.00;-1.00;-1.00;104973;1262;1005186;-87
2023/01/25 04:18:53;;;;;;;12.30;9.90;;;;;;;-128.00;-1.00;-1.00;105085;1264;1005174;-87
2023/01/25 04:21:19;;;;;;;15.10;10.70;;;;;;;-128.00;-1.00;-1.00;105090;1262;1004315;-88
2023/01/25 04:23:46;;;;;;;11.40;9.40;;;;;;;-128.00;-1.00;-1.00;105082;1262;1004202;-86
2023/01/25 04:26:13;;;;;;;13.40;10.40;;;;;;;-128.00;-1.00;-1.00;105060;1262;1004406;-88
2023/01/25 04:28:40;;;;;;;11.00;9.50;;;;;;;-128.00;-1.00;-1.00;104960;1262;1005595;-87
2023/01/25 04:31:07;;;;;;;12.30;9.50;;;;;;;-128.00;-1.00;-1.00;105056;1262;1006954;-86
2023/01/25 04:33:34;;;;;;;14.10;11.60;;;;;;;-128.00;-1.00;-1.00;105050;1262;1005436;-87
2023/01/25 04:36:00;;;;;;;14.30;11.20;;;;;;;-128.00;-1.00;-1.00;105106;1262;1004040;-87
2023/01/25 04:38:27;;;;;;;13.00;10.80;;;;;;;-128.00;-1.00;-1.00;104937;1262;1005848;-87
2023/01/25 04:40:54;;;;;;;13.50;11.00;;;;;;;-128.00;-1.00;-1.00;105079;1262;1004057;-87
2023/01/25 04:43:21;;;;;;;14.80;11.30;;;;;;;-128.00;-1.00;-1.00;105080;1262;1004895;-88
2023/01/25 04:45:48;;;;;;;15.90;11.90;;;;;;;-128.00;-1.00;-1.00;105074;1262;1003924;-88
2023/01/25 04:48:14;;;;;;;15.70;12.90;;;;;;;-128.00;-1.00;-1.00;104999;1262;1005752;-87
2023/01/25 04:50:42;;;;;;;13.80;11.90;;;;;;;-128.00;-1.00;-1.00;105073;1263;1005637;-88
2023/01/25 04:53:10;;;;;;;18.30;12.60;;;;;;;-128.00;-1.00;-1.00;105056;1262;1003746;-88
2023/01/25 04:55:37;;;;;;;14.70;11.70;;;;;;;-128.00;-1.00;-1.00;105092;1262;1004167;-88
2023/01/25 04:58:04;;;;;;;15.90;11.10;;;;;;;-128.00;-1.00;-1.00;105056;1266;1006195;-88
2023/01/25 05:00:31;;;;;;;14.20;11.60;;;;;;;-128.00;-1.00;-1.00;105099;1262;1005772;-87
2023/01/25 05:02:58;;;;;;;15.30;11.00;;;;;;;-128.00;-1.00;-1.00;105086;1262;1005387;-88
2023/01/25 05:05:25;;;;;;;15.10;11.20;;;;;;;-128.00;-1.00;-1.00;105056;1262;1005366;-88
2023/01/25 05:07:51;;;;;;;15.00;11.40;;;;;;;-128.00;-1.00;-1.00;105091;1262;1004844;-89
2023/01/25 05:10:18;;;;;;;16.80;10.80;;;;;;;-128.00;-1.00;-1.00;105089;1264;1005365;-88
2023/01/25 05:12:45;;;;;;;15.30;11.40;;;;;;;-128.00;-1.00;-1.00;105074;1262;1004955;-88
2023/01/25 05:15:11;;;;;;;17.00;11.60;;;;;;;-128.00;-1.00;-1.00;104858;1262;1005711;-89
2023/01/25 05:17:38;;;;;;;14.10;10.30;;;;;;;-128.00;-1.00;-1.00;104797;1262;1003939;-89
2023/01/25 05:20:05;;;;;;;15.60;11.70;;;;;;;-128.00;-1.00;-1.00;105062;1262;1005569;-89
2023/01/25 05:22:31;;;;;;;16.70;11.80;;;;;;;-128.00;-1.00;-1.00;104821;1262;1005955;-87
2023/01/25 05:24:58;;;;;;;15.30;11.40;;;;;;;-128.00;-1.00;-1.00;105091;1262;1005053;-88
2023/01/25 05:27:25;;;;;;;16.40;12.00;;;;;;;-128.00;-1.00;-1.00;104953;1263;1005768;-88
2023/01/25 05:29:51;;;;;;;16.50;11.60;;;;;;;-128.00;-1.00;-1.00;105088;1262;1003814;-88
2023/01/25 05:32:21;;;;;;;15.60;11.50;;;;;;;-128.00;-1.00;-1.00;104910;1269;1005480;-89
2023/01/25 05:34:48;;;;;;;14.90;10.50;;;;;;;-128.00;-1.00;-1.00;105066;1262;1061533;-86
2023/01/25 05:37:19;;;;;;;16.50;11.20;;;;;;;-128.00;-1.00;-1.00;104872;1262;1004461;-87
2023/01/25 05:39:46;;;;;;;17.80;12.40;;;;;;;-128.00;-1.00;-1.00;105084;1262;1058670;-88
2023/01/25 05:42:15;;;;;;;16.20;11.40;;;;;;;-128.00;-1.00;-1.00;104822;1263;1004677;-86
2023/01/25 05:44:43;;;;;;;17.60;11.60;;;;;;;-128.00;-1.00;-1.00;105095;1262;1048965;-88
2023/01/25 05:47:13;;;;;;;18.20;12.40;;;;;;;-128.00;-1.00;-1.00;105054;1263;1004512;-86
2023/01/25 05:49:39;;;;;;;19.40;14.80;;;;;;;-128.00;-1.00;-1.00;105093;1262;1054579;-87
2023/01/25 05:52:06;;;;;;;17.60;12.70;;;;;;;-128.00;-1.00;-1.00;105063;1262;1005919;-87
2023/01/25 05:54:33;;;;;;;19.30;13.10;;;;;;;-128.00;-1.00;-1.00;105074;1262;1005441;-87
2023/01/25 05:56:59;;;;;;;20.00;13.80;;;;;;;-128.00;-1.00;-1.00;105087;1262;1004703;-88
2023/01/25 05:59:26;;;;;;;18.20;12.90;;;;;;;-128.00;-1.00;-1.00;105047;1262;1004901;-87
2023/01/25 06:01:52;;;;;;;17.80;13.00;;;;;;;-128.00;-1.00;-1.00;105063;1262;1005759;-87
2023/01/25 06:04:19;;;;;;;19.10;14.20;;;;;;;-128.00;-1.00;-1.00;104160;1262;1005653;-88
2023/01/25 06:06:46;;;;;;;20.00;14.20;;;;;;;-128.00;-1.00;-1.00;105042;1263;1005041;-88
2023/01/25 06:09:12;;;;;;;19.30;13.10;;;;;;;-128.00;-1.00;-1.00;105098;1262;1003722;-87
2023/01/25 06:11:43;;;;;;;18.10;13.40;;;;;;;-128.00;-1.00;-1.00;104901;1262;1005390;-88
2023/01/25 06:14:10;;;;;;;18.20;13.90;;;;;;;-128.00;-1.00;-1.00;105013;1262;1055966;-87
2023/01/25 06:16:36;;;;;;;18.80;14.00;;;;;;;-128.00;-1.00;-1.00;105030;1262;1004537;-89
2023/01/25 06:19:05;;;;;;;16.20;12.70;;;;;;;-128.00;-1.00;-1.00;104895;1265;1005724;-87
2023/01/25 06:21:34;;;;;;;14.80;12.70;;;;;;;-128.00;-1.00;-1.00;105040;1262;1047037;-89
2023/01/25 06:24:00;;;;;;;18.70;14.30;;;;;;;-128.00;-1.00;-1.00;105021;1262;1062881;-89
2023/01/25 06:26:27;;;;;;;16.40;12.80;;;;;;;-128.00;-1.00;-1.00;104763;1263;1003956;-87
2023/01/25 06:28:53;;;;;;;16.50;12.40;;;;;;;-128.00;-1.00;-1.00;105023;1262;1004621;-88
2023/01/25 06:31:20;;;;;;;20.80;13.20;;;;;;;-128.00;-1.00;-1.00;104990;1262;1005293;-87
2023/01/25 06:33:49;;;;;;;17.30;12.60;;;;;;;-128.00;-1.00;-1.00;105008;1262;1003996;-88
2023/01/25 06:36:18;;;;;;;15.50;12.10;;;;;;;-128.00;-1.00;-1.00;105006;1262;1061732;-88
2023/01/25 06:38:51;;;;;;;17.30;12.10;;;;;;;-128.00;-1.00;-1.00;104273;1263;1055613;-88
2023/01/25 06:41:19;;;;;;;17.00;12.10;;;;;;;-128.00;-1.00;-1.00;104917;1262;1060496;-87
2023/01/25 06:43:46;;;;;;;18.50;12.60;;;;;;;-128.00;-1.00;-1.00;104706;1268;1004273;-88
2023/01/25 06:46:13;;;;;;;17.10;13.50;;;;;;;-128.00;-1.00;-1.00;104739;1267;1004471;-86
2023/01/25 06:48:43;;;;;;;14.50;11.10;;;;;;;-128.00;-1.00;-1.00;104841;1265;1004554;-88
2023/01/25 06:51:12;;;;;;;17.40;12.50;;;;;;;-128.00;-1.00;-1.00;104832;1265;1055112;-89
2023/01/25 06:53:41;;;;;;;16.60;12.30;;;;;;;-128.00;-1.00;-1.00;104826;1265;1060193;-88
2023/01/25 06:56:19;;;;;;;17.60;12.10;;;;;;;-128.00;-1.00;-1.00;104717;1266;1047071;-88
2023/01/25 06:58:47;;;;;;;16.20;11.30;;;;;;;-128.00;-1.00;-1.00;104882;1266;1047043;-88
2023/01/25 07:01:18;;;;;;;16.20;11.30;;;;;;;-128.00;-1.00;-1.00;104886;1265;1006037;-87
2023/01/25 07:03:49;;;;;;;18.40;12.70;;;;;;;-128.00;-1.00;-1.00;104896;1265;1056988;-87
2023/01/25 07:06:17;;;;;;;16.80;13.40;;;;;;;-128.00;-1.00;-1.00;104869;1266;1059447;-88
2023/01/25 07:08:44;;;;;;;18.10;13.20;;;;;;;-128.00;-1.00;-1.00;104836;1267;1005446;-88
2023/01/25 07:11:12;;;;;;;17.40;12.90;;;;;;;-128.00;-1.00;-1.00;104854;1269;1006118;-87
2023/01/25 07:13:41;;;;;;;19.10;13.70;;;;;;;-128.00;-1.00;-1.00;104070;1266;1061420;-87
2023/01/25 07:16:15;;;;;;;16.80;12.10;;;;;;;-128.00;-1.00;-1.00;104747;1266;1055157;-88
2023/01/25 07:18:41;;;;;;;15.80;11.90;;;;;;;-128.00;-1.00;-1.00;104757;1267;1058499;-87
2023/01/25 07:21:14;;;;;;;17.90;13.50;;;;;;;-128.00;-1.00;-1.00;104890;1264;1004917;-88
2023/01/25 07:23:41;;;;;;;18.20;12.70;;;;;;;-128.00;-1.00;-1.00;104749;1264;1048217;-87
2023/01/25 07:26:16;;;;;;;18.60;13.70;;;;;;;-128.00;-1.00;-1.00;104860;1264;1003505;-85
2023/01/25 07:28:44;;;;;;;19.70;15.10;;;;;;;-128.00;-1.00;-1.00;104928;1264;1054438;-86
2023/01/25 07:31:11;;;;;;;19.30;14.90;;;;;;;-128.00;-1.00;-1.00;104925;1264;1005437;-88
2023/01/25 07:33:37;;;;;;;21.40;16.50;;;;;;;-128.00;-1.00;-1.00;104883;1264;1005612;-87
2023/01/25 07:36:06;;;;;;;17.80;14.70;;;;;;;-128.00;-1.00;-1.00;104890;1264;1006098;-87
2023/01/25 07:38:33;;;;;;;19.60;15.30;;;;;;;-128.00;-1.00;-1.00;104897;1264;1064135;-87
2023/01/25 07:41:00;;;;;;;19.10;14.40;;;;;;;-128.00;-1.00;-1.00;105001;1264;1003832;-88
2023/01/25 07:43:28;;;;;;;14.20;12.00;;;;;;;-128.00;-1.00;-1.00;105026;1264;1004338;-87
2023/01/25 07:46:12;;;;;;;15.70;12.00;;;;;;;-128.00;-1.00;-1.00;105066;1263;1003882;-88
2023/01/25 07:48:43;;;;;;;15.10;12.10;;;;;;;-128.00;-1.00;-1.00;105022;1264;1048331;-87
2023/01/25 07:51:10;;;;;;;18.20;12.40;;;;;;;-128.00;-1.00;-1.00;105007;1264;1062396;-86
2023/01/25 07:53:38;;;;;;;13.90;11.60;;;;;;;-128.00;-1.00;-1.00;105018;1264;1005489;-88
2023/01/25 07:56:06;;;;;;;14.40;11.40;;;;;;;-128.00;-1.00;-1.00;104955;1263;1059871;-86
2023/01/25 07:58:33;;;;;;;16.30;13.00;;;;;;;-128.00;-1.00;-1.00;105071;1263;1004551;-88
2023/01/25 08:01:11;;;;;;;15.60;12.50;;;;;;;-128.00;-1.00;-1.00;105000;1263;1004435;-88
2023/01/25 08:03:38;;;;;;;16.00;13.10;;;;;;;-128.00;-1.00;-1.00;104807;1266;1061983;-87
2023/01/25 08:06:07;;;;;;;16.30;13.00;;;;;;;-128.00;-1.00;-1.00;104772;1267;1004111;-83
2023/01/25 08:08:36;;;;;;;16.20;13.20;;;;;;;-128.00;-1.00;-1.00;104790;1263;1059582;-82
2023/01/25 08:11:19;;;;;;;18.30;14.50;;;;;;;-128.00;-1.00;-1.00;104915;1264;1044530;-78
2023/01/25 08:13:46;;;;;;;15.80;12.20;;;;;;;-128.00;-1.00;-1.00;104842;1265;1046700;-77
2023/01/25 08:16:14;;;;;;;25.60;14.60;;;;;;;-128.00;-1.00;-1.00;104924;1267;1004584;-82
2023/01/25 08:18:40;;;;;;;16.90;12.90;;;;;;;-128.00;-1.00;-1.00;105033;1265;1005342;-84
2023/01/25 08:21:07;;;;;;;14.70;11.80;;;;;;;-128.00;-1.00;-1.00;104943;1267;1004281;-75
2023/01/25 08:23:35;;;;;;;16.20;11.80;;;;;;;-128.00;-1.00;-1.00;104733;1266;1003888;-84
2023/01/25 08:26:05;;;;;;;14.60;12.10;;;;;;;-128.00;-1.00;-1.00;104984;1264;1004678;-86
2023/01/25 08:28:32;;;;;;;18.80;13.60;;;;;;;-128.00;-1.00;-1.00;105014;1263;1060705;-83
2023/01/25 08:31:14;;;;;;;14.10;11.30;;;;;;;-128.00;-1.00;-1.00;105046;1263;1004878;-85
2023/01/25 08:33:43;;;;;;;16.10;12.60;;;;;;;-128.00;-1.00;-1.00;105003;1263;1059482;-86
2023/01/25 08:36:09;;;;;;;16.50;14.20;;;;;;;-128.00;-1.00;-1.00;105025;1263;1045477;-85
2023/01/25 08:38:36;;;;;;;15.80;12.80;;;;;;;-128.00;-1.00;-1.00;105019;1263;1004052;-83
2023/01/25 08:41:08;;;;;;;14.70;12.50;;;;;;;-128.00;-1.00;-1.00;104908;1263;1005033;-83
2023/01/25 08:43:36;;;;;;;20.20;14.30;;;;;;;-128.00;-1.00;-1.00;105000;1264;1055028;-84
2023/01/25 08:46:03;;;;;;;17.20;13.40;;;;;;;-128.00;-1.00;-1.00;104953;1264;1003281;-87
2023/01/25 08:48:30;;;;;;;16.90;13.00;;;;;;;-128.00;-1.00;-1.00;104900;1264;1004126;-90
2023/01/25 08:50:57;;;;;;;16.90;13.90;;;;;;;-128.00;-1.00;-1.00;104984;1263;1005439;-80
2023/01/25 08:53:26;;;;;;;17.80;14.10;;;;;;;-128.00;-1.00;-1.00;104951;1263;1004116;-80
2023/01/25 08:55:53;;;;;;;15.20;12.60;;;;;;;-128.00;-1.00;-1.00;104937;1263;1055890;-70
2023/01/25 08:58:21;;;;;;;14.60;12.00;;;;;;;-128.00;-1.00;-1.00;104910;1264;1004891;-70
2023/01/25 09:00:48;;;;;;;14.90;12.20;;;;;;;-128.00;-1.00;-1.00;104889;1264;1004142;-71
2023/01/25 09:03:16;;;;;;;19.80;14.60;;;;;;;-128.00;-1.00;-1.00;104928;1264;1004762;-70
2023/01/25 09:05:43;;;;;;;18.60;13.70;;;;;;;-128.00;-1.00;-1.00;104910;1264;1060841;-71
2023/01/25 09:08:10;;;;;;;13.60;12.00;;;;;;;-128.00;-1.00;-1.00;104923;1264;1003920;-71
2023/01/25 09:10:37;;;;;;;15.60;12.50;;;;;;;-128.00;-1.00;-1.00;104889;1264;1005021;-71
2023/01/25 09:13:03;;;;;;;15.10;11.90;;;;;;;-128.00;-1.00;-1.00;104726;1263;1003903;-72
2023/01/25 09:15:30;;;;;;;18.00;13.00;;;;;;;-128.00;-1.00;-1.00;104910;1264;1004306;-70
2023/01/25 09:17:57;;;;;;;17.40;14.00;;;;;;;-128.00;-1.00;-1.00;104909;1264;1004574;-71
2023/01/25 09:20:24;;;;;;;14.00;12.10;;;;;;;-128.00;-1.00;-1.00;104617;1264;1005017;-70
2023/01/25 09:22:50;;;;;;;16.80;13.70;;;;;;;-128.00;-1.00;-1.00;104897;1264;1004777;-70
2023/01/25 09:25:17;;;;;;;14.60;11.90;;;;;;;-128.00;-1.00;-1.00;104931;1264;1003546;-70
2023/01/25 09:27:43;;;;;;;16.40;13.30;;;;;;;-128.00;-1.00;-1.00;104934;1264;1003683;-71
2023/01/25 09:30:11;;;;;;;17.10;13.50;;;;;;;-128.00;-1.00;-1.00;104912;1264;1004554;-71
2023/01/25 09:32:37;;;;;;;16.70;13.80;;;;;;;-128.00;-1.00;-1.00;104704;1264;1004151;-71
2023/01/25 09:35:05;;;;;;;16.90;14.30;;;;;;;-128.00;-1.00;-1.00;104902;1263;1004097;-72
2023/01/25 09:37:31;;;;;;;15.10;12.40;;;;;;;-128.00;-1.00;-1.00;104890;1264;1004408;-71
2023/01/25 09:39:58;;;;;;;16.20;13.50;;;;;;;-128.00;-1.00;-1.00;104941;1264;1004119;-71
2023/01/25 09:42:46;;;;;;;14.00;10.90;;;;;;;-128.00;-1.00;-1.00;104968;1264;1003550;-70
2023/01/25 09:45:29;;;;;;;14.60;12.00;;;;;;;-128.00;-1.00;-1.00;104955;1264;1055869;-71
2023/01/25 09:47:58;;;;;;;16.70;12.40;;;;;;;-128.00;-1.00;-1.00;104915;1264;1058767;-69
2023/01/25 09:50:32;;;;;;;12.90;11.00;;;;;;;-128.00;-1.00;-1.00;104914;1264;1004225;-70
2023/01/25 09:53:16;;;;;;;15.60;12.60;;;;;;;-128.00;-1.00;-1.00;104941;1264;1047361;-70
2023/01/25 09:55:43;;;;;;;13.40;11.50;;;;;;;-128.00;-1.00;-1.00;104907;1264;1061175;-70
2023/01/25 09:58:18;;;;;;;15.30;12.30;;;;;;;-128.00;-1.00;-1.00;104783;1264;1003629;-71
2023/01/25 10:00:49;;;;;;;15.10;11.40;;;;;;;-128.00;-1.00;-1.00;104923;1263;1059597;-71
2023/01/25 10:03:37;;;;;;;12.60;10.10;;;;;;;-128.00;-1.00;-1.00;104890;1264;1045756;-71
2023/01/25 10:06:04;;;;;;;11.20;9.90;;;;;;;-128.00;-1.00;-1.00;104968;1264;1047261;-71
2023/01/25 10:08:48;;;;;;;13.10;10.80;;;;;;;-128.00;-1.00;-1.00;104908;1264;1006040;-70
2023/01/25 10:11:28;;;;;;;12.10;9.90;;;;;;;-128.00;-1.00;-1.00;104928;1264;1056652;-70
2023/01/25 10:13:56;;;;;;;15.50;10.40;;;;;;;-128.00;-1.00;-1.00;104830;1264;1060197;-70
2023/01/25 10:16:39;;;;;;;16.30;13.30;;;;;;;-128.00;-1.00;-1.00;104788;1264;1046439;-70
2023/01/25 10:19:28;;;;;;;22.30;20.20;;;;;;;-128.00;-1.00;-1.00;104814;1264;1046793;-70
2023/01/25 10:22:00;;;;;;;24.10;21.20;;;;;;;-128.00;-1.00;-1.00;104911;1264;1061728;-71
2023/01/25 10:24:51;;;;;;;17.80;15.10;;;;;;;-128.00;-1.00;-1.00;104938;1264;1056558;-71
2023/01/25 10:27:38;;;;;;;14.90;13.10;;;;;;;-128.00;-1.00;-1.00;104889;1264;1061336;-70
2023/01/25 10:30:22;;;;;;;15.00;12.80;;;;;;;-128.00;-1.00;-1.00;104926;1263;1046026;-70
2023/01/25 10:32:51;;;;;;;11.80;9.20;;;;;;;-128.00;-1.00;-1.00;104906;1264;1045983;-70
2023/01/25 10:35:22;;;;;;;12.30;9.50;;;;;;;-128.00;-1.00;-1.00;104875;1264;1062079;-70
2023/01/25 10:37:49;;;;;;;12.70;10.30;;;;;;;-128.00;-1.00;-1.00;104778;1263;1056693;-70
2023/01/25 10:40:25;;;;;;;12.90;9.80;;;;;;;-128.00;-1.00;-1.00;104791;1263;1004593;-71
2023/01/25 10:43:01;;;;;;;11.90;9.80;;;;;;;-128.00;-1.00;-1.00;104766;1264;1045491;-71
2023/01/25 10:45:27;;;;;;;15.30;13.60;;;;;;;-128.00;-1.00;-1.00;104927;1264;1047611;-71
2023/01/25 10:48:02;;;;;;;14.60;12.00;;;;;;;-128.00;-1.00;-1.00;104782;1264;1005236;-71
2023/01/25 10:50:38;;;;;;;12.30;10.90;;;;;;;-128.00;-1.00;-1.00;104910;1264;1055553;-71
2023/01/25 10:53:20;;;;;;;14.70;11.00;;;;;;;-128.00;-1.00;-1.00;104916;1264;1059258;-71
2023/01/25 10:56:01;;;;;;;13.70;11.20;;;;;;;-128.00;-1.00;-1.00;104906;1264;1045878;-71
2023/01/25 10:58:32;;;;;;;12.80;11.20;;;;;;;-128.00;-1.00;-1.00;104732;1264;1047833;-70
2023/01/25 11:00:59;;;;;;;12.50;10.70;;;;;;;-128.00;-1.00;-1.00;104904;1264;1060508;-71
2023/01/25 11:03:36;;;;;;;9.70;8.30;;;;;;;-128.00;-1.00;-1.00;104912;1263;1003975;-70
2023/01/25 11:06:03;;;;;;;10.70;7.80;;;;;;;-128.00;-1.00;-1.00;104885;1264;1058214;-70
2023/01/25 11:08:30;;;;;;;11.50;8.20;;;;;;;-128.00;-1.00;-1.00;104925;1263;1004221;-70
2023/01/25 11:10:58;;;;;;;12.10;8.70;;;;;;;-128.00;-1.00;-1.00;104923;1264;1004724;-70
2023/01/25 11:13:32;;;;;;;5.90;5.30;;;;;;;-128.00;-1.00;-1.00;104916;1264;1004294;-71
2023/01/25 11:15:58;;;;;;;19.50;11.70;;;;;;;-128.00;-1.00;-1.00;104925;1264;1055325;-70